Overview Statistics Trail Chart Weather Telemetry Raw packets
 

This is the latest recevied weather packets stored in our database for station/object K5SVV. If no packets are shown the sender has not sent any weather packets the latest 10 day(s).

<< 102 103 104 105 106 107 108 >>
Time Temp. Humidity Pressure Rain* Wind** Luminosity Snow
1787923939 27.22° C 77% 1017.3 hPa 0 mm - 167 W/m² -
1787923638 26.67° C 77% 1017 hPa 0 mm - 137 W/m² -
1787923333 26.67° C 79% 1017.1 hPa 0 mm - 132 W/m² -
1787923029 26.11° C 79% 1017.1 hPa 0 mm - 119 W/m² -
1787922724 25.56° C 82% 1017.3 hPa 0 mm - 102 W/m² -
1787922422 25° C 83% 1016.9 hPa 0 mm - 88 W/m² -
1787922121 24.44° C 84% 1017.1 hPa 0 mm - 74 W/m² -
1787921823 24.44° C 85% 1016.9 hPa 0 mm - 47 W/m² -
1787921515 23.89° C 86% 1016.9 hPa 0 mm - 37 W/m² -
1787921208 23.89° C 87% 1016.9 hPa 0 mm - 35 W/m² -
1787920904 23.33° C 87% 1016.7 hPa 0 mm - 32 W/m² -
1787920598 23.33° C 87% 1017.1 hPa 0 mm - 28 W/m² -
1787920293 23.33° C 88% 1016.9 hPa 0 mm - 24 W/m² -
1787919986 22.78° C 88% 1016.8 hPa 0 mm - 19 W/m² -
1787919685 22.78° C 88% 1016.6 hPa 0 mm - 16 W/m² -
1787919380 22.78° C 88% 1016.7 hPa 0 mm - 12 W/m² -
1787919076 22.78° C 88% 1016.5 hPa 0 mm - 8 W/m² -
1787918781 22.78° C 88% 1016.6 hPa 0 mm - 4 W/m² -
1787918464 22.78° C 88% 1016 hPa 0 mm - 2 W/m² -
1787918162 22.78° C 87% 1016.1 hPa 0 mm - 0 W/m² -
1787917857 22.78° C 87% 1015.9 hPa 0 mm - 0 W/m² -
1787917554 22.78° C 86% 1016.1 hPa 0 mm - 0 W/m² -
1787917250 22.78° C 86% 1016 hPa 0 mm - 0 W/m² -
1787916949 23.33° C 86% 1015.9 hPa 0 mm - 0 W/m² -
1787916643 23.33° C 85% 1016 hPa 0 mm - 0 W/m² -

* Rain latest hour (hover to see other rain measurements)
** Current wind speed in m/s (hover to see current wind gust speed)